createdAt,value
2022-09-28T00:02:19.446Z,100.00
2022-09-28T00:04:48.342Z,100.00
2022-09-28T00:07:15.783Z,100.00
2022-09-28T00:09:43.928Z,100.00
2022-09-28T00:12:11.820Z,100.00
2022-09-28T00:14:40.518Z,100.00
2022-09-28T00:17:08.268Z,100.00
2022-09-28T00:19:35.810Z,100.00
2022-09-28T00:22:04.602Z,100.00
2022-09-28T00:24:32.487Z,100.00
2022-09-28T00:27:02.469Z,100.00
2022-09-28T00:29:32.080Z,100.00
2022-09-28T00:32:02.475Z,100.00
2022-09-28T00:34:32.345Z,100.00
2022-09-28T00:37:00.576Z,100.00
2022-09-28T00:39:31.549Z,100.00
2022-09-28T00:42:00.077Z,100.00
2022-09-28T00:44:41.096Z,100.00
2022-09-28T00:47:20.697Z,100.00
2022-09-28T00:49:54.478Z,100.00
2022-09-28T00:52:28.125Z,100.00
2022-09-28T00:55:01.318Z,100.00
2022-09-28T00:57:30.279Z,100.00
2022-09-28T00:59:59.087Z,100.00
2022-09-28T01:02:26.631Z,100.00
2022-09-28T01:04:55.489Z,100.00
2022-09-28T01:07:23.575Z,100.00
2022-09-28T01:09:52.301Z,100.00
2022-09-28T01:12:21.219Z,100.00
2022-09-28T01:14:50.125Z,100.00
2022-09-28T01:17:24.424Z,100.00
2022-09-28T01:20:07.315Z,100.00
2022-09-28T01:23:09.332Z,100.00
2022-09-28T01:25:42.150Z,100.00
2022-09-28T01:28:15.196Z,100.00
2022-09-28T01:30:53.349Z,100.00
2022-09-28T01:33:25.037Z,100.00
2022-09-28T01:35:56.862Z,100.00
2022-09-28T01:38:30.123Z,100.00
2022-09-28T01:40:59.281Z,100.00
2022-09-28T01:43:29.582Z,100.00
2022-09-28T01:46:01.875Z,100.00
2022-09-28T01:48:34.150Z,100.00
2022-09-28T01:51:05.588Z,100.00
2022-09-28T01:53:38.226Z,100.00
2022-09-28T01:56:09.908Z,100.00
2022-09-28T01:58:44.506Z,100.00
2022-09-28T02:01:23.139Z,100.00
2022-09-28T02:03:57.885Z,100.00
2022-09-28T02:06:31.890Z,100.00
2022-09-28T02:09:04.360Z,100.00
2022-09-28T02:11:33.291Z,100.00
2022-09-28T02:14:06.192Z,100.00
2022-09-28T02:16:38.598Z,100.00
2022-09-28T02:19:08.273Z,100.00
2022-09-28T02:21:42.679Z,100.00
2022-09-28T02:24:20.647Z,100.00
2022-09-28T02:26:50.823Z,100.00
2022-09-28T02:29:19.702Z,100.00
2022-09-28T02:31:47.332Z,100.00
2022-09-28T02:34:14.835Z,100.00
2022-09-28T02:36:44.819Z,100.00
2022-09-28T02:39:14.875Z,100.00
2022-09-28T02:41:52.815Z,100.00
2022-09-28T02:44:37.320Z,100.00
2022-09-28T02:47:17.172Z,100.00
2022-09-28T02:49:55.707Z,100.00
2022-09-28T02:52:49.964Z,100.00
2022-09-28T02:55:34.740Z,100.00
2022-09-28T02:58:16.460Z,100.00
2022-09-28T03:00:53.282Z,100.00
2022-09-28T03:03:26.946Z,100.00
2022-09-28T03:06:01.486Z,100.00
2022-09-28T03:08:33.433Z,100.00
2022-09-28T03:11:04.939Z,100.00
2022-09-28T03:13:34.412Z,100.00
2022-09-28T03:16:14.252Z,100.00
2022-09-28T03:18:42.077Z,100.00
2022-09-28T03:21:12.045Z,100.00
2022-09-28T03:23:39.762Z,100.00
2022-09-28T03:26:08.676Z,100.00
2022-09-28T03:28:36.638Z,100.00
2022-09-28T03:31:04.298Z,100.00
2022-09-28T03:33:33.376Z,100.00
2022-09-28T03:36:01.031Z,100.00
2022-09-28T03:38:28.525Z,100.00
2022-09-28T03:40:57.270Z,100.00
2022-09-28T03:43:26.071Z,100.00
2022-09-28T03:45:54.901Z,100.00
2022-09-28T03:48:27.616Z,100.00
2022-09-28T03:51:01.136Z,100.00
2022-09-28T03:53:29.712Z,100.00
2022-09-28T03:56:02.594Z,100.00
2022-09-28T03:58:30.025Z,100.00
2022-09-28T04:01:02.814Z,100.00
2022-09-28T04:03:30.343Z,100.00
2022-09-28T04:05:59.411Z,100.00
2022-09-28T04:08:26.935Z,100.00
2022-09-28T04:10:57.343Z,100.00
2022-09-28T04:13:25.077Z,100.00
2022-09-28T04:15:56.927Z,100.00
2022-09-28T04:18:25.003Z,100.00
2022-09-28T04:21:03.450Z,100.00
2022-09-28T04:23:31.111Z,100.00
2022-09-28T04:25:58.682Z,100.00
2022-09-28T04:28:44.104Z,100.00
2022-09-28T04:31:12.863Z,100.00
2022-09-28T04:33:40.338Z,100.00
2022-09-28T04:36:09.448Z,100.00
2022-09-28T04:38:52.309Z,100.00
2022-09-28T04:41:22.326Z,100.00
2022-09-28T04:43:50.305Z,100.00
2022-09-28T04:46:17.999Z,100.00
2022-09-28T04:48:45.612Z,100.00
2022-09-28T04:51:14.416Z,100.00
2022-09-28T04:53:41.942Z,100.00
2022-09-28T04:56:12.464Z,100.00
2022-09-28T04:58:40.841Z,100.00
2022-09-28T05:01:11.652Z,100.00
2022-09-28T05:03:39.159Z,100.00
2022-09-28T05:06:07.625Z,100.00
2022-09-28T05:08:36.847Z,100.00
2022-09-28T05:11:06.269Z,100.00
2022-09-28T05:13:35.625Z,100.00
2022-09-28T05:16:05.619Z,100.00
2022-09-28T05:18:33.352Z,100.00
2022-09-28T05:21:01.318Z,100.00
2022-09-28T05:23:28.819Z,100.00
2022-09-28T05:25:57.800Z,100.00
2022-09-28T05:28:28.502Z,100.00
2022-09-28T05:30:59.494Z,100.00
2022-09-28T05:33:27.000Z,100.00
2022-09-28T05:35:57.875Z,100.00
2022-09-28T05:38:28.371Z,100.00
2022-09-28T05:40:55.950Z,100.00
2022-09-28T05:43:24.868Z,100.00
2022-09-28T05:45:55.706Z,100.00
2022-09-28T05:48:23.550Z,100.00
2022-09-28T05:50:51.655Z,100.00
2022-09-28T05:53:19.418Z,100.00
2022-09-28T05:55:46.984Z,100.00
2022-09-28T05:58:14.496Z,100.00
2022-09-28T06:00:44.039Z,100.00
2022-09-28T06:03:13.939Z,100.00
2022-09-28T06:05:41.850Z,100.00
2022-09-28T06:08:11.541Z,100.00
2022-09-28T06:10:39.474Z,100.00
2022-09-28T06:13:07.419Z,100.00
2022-09-28T06:15:37.073Z,100.00
2022-09-28T06:18:07.544Z,100.00
2022-09-28T06:20:36.791Z,100.00
2022-09-28T06:23:04.637Z,100.00
2022-09-28T06:25:32.877Z,100.00
2022-09-28T06:28:02.013Z,100.00
2022-09-28T06:30:31.731Z,100.00
2022-09-28T06:33:00.785Z,100.00
2022-09-28T06:35:31.262Z,100.00
2022-09-28T06:37:59.214Z,100.00
2022-09-28T06:40:27.637Z,100.00
2022-09-28T06:42:59.667Z,100.00
2022-09-28T06:45:29.885Z,100.00
2022-09-28T06:47:58.692Z,100.00
2022-09-28T06:50:26.595Z,100.00
2022-09-28T06:52:57.087Z,100.00
2022-09-28T06:55:24.712Z,100.00
2022-09-28T06:57:59.380Z,100.00
2022-09-28T07:00:27.745Z,100.00
2022-09-28T07:02:55.252Z,100.00
2022-09-28T07:05:26.635Z,100.00
2022-09-28T07:07:56.411Z,100.00
2022-09-28T07:10:24.514Z,100.00
2022-09-28T07:12:52.442Z,100.00
2022-09-28T07:15:20.137Z,100.00
2022-09-28T07:18:00.550Z,100.00
2022-09-28T07:20:30.488Z,100.00
2022-09-28T07:23:12.194Z,100.00
2022-09-28T07:25:45.541Z,100.00
2022-09-28T07:28:13.227Z,100.00
2022-09-28T07:30:42.225Z,100.00
2022-09-28T07:33:14.314Z,100.00
2022-09-28T07:35:42.913Z,100.00
2022-09-28T07:38:13.159Z,100.00
2022-09-28T07:40:58.186Z,100.00
2022-09-28T07:43:25.847Z,100.00
2022-09-28T07:45:54.890Z,100.00
2022-09-28T07:48:23.836Z,100.00
2022-09-28T07:50:52.285Z,100.00
2022-09-28T07:53:22.299Z,100.00
2022-09-28T07:55:52.924Z,100.00
2022-09-28T07:58:20.787Z,100.00
2022-09-28T08:00:49.233Z,100.00
2022-09-28T08:03:17.420Z,100.00
2022-09-28T08:05:45.653Z,100.00
2022-09-28T08:08:13.350Z,100.00
2022-09-28T08:10:46.526Z,100.00
2022-09-28T08:13:16.268Z,100.00
2022-09-28T08:15:43.781Z,100.00
2022-09-28T08:18:11.340Z,100.00
2022-09-28T08:20:56.608Z,100.00
2022-09-28T08:23:24.516Z,100.00
2022-09-28T08:25:53.857Z,100.00
2022-09-28T08:28:23.119Z,100.00
2022-09-28T08:30:51.137Z,100.00
2022-09-28T08:33:21.153Z,100.00
2022-09-28T08:35:48.853Z,100.00
2022-09-28T08:38:16.336Z,100.00
2022-09-28T08:40:54.904Z,100.00
2022-09-28T08:44:03.506Z,100.00
2022-09-28T08:46:35.072Z,100.00
2022-09-28T08:49:26.379Z,100.00
2022-09-28T08:52:01.995Z,100.00
2022-09-28T08:54:37.848Z,100.00
2022-09-28T08:57:12.041Z,100.00
2022-09-28T08:59:51.432Z,100.00
2022-09-28T09:02:25.389Z,100.00
2022-09-28T09:04:53.713Z,100.00
2022-09-28T09:07:46.566Z,100.00
2022-09-28T09:10:28.606Z,100.00
2022-09-28T09:13:07.999Z,100.00
2022-09-28T09:15:47.033Z,100.00
2022-09-28T09:18:24.780Z,100.00
2022-09-28T09:20:56.697Z,100.00
2022-09-28T09:23:36.236Z,100.00
2022-09-28T09:26:12.812Z,100.00
2022-09-28T09:29:13.789Z,100.00
2022-09-28T09:31:59.558Z,100.00
2022-09-28T09:34:39.693Z,100.00
2022-09-28T09:37:21.996Z,100.00
2022-09-28T09:40:04.728Z,100.00
2022-09-28T09:42:48.951Z,100.00
2022-09-28T09:45:37.168Z,100.00
2022-09-28T09:48:11.444Z,100.00
2022-09-28T09:50:45.732Z,100.00
2022-09-28T09:53:22.498Z,100.00
2022-09-28T09:55:57.124Z,100.00
2022-09-28T09:58:30.598Z,100.00
2022-09-28T10:01:06.628Z,100.00
2022-09-28T10:03:40.027Z,100.00
2022-09-28T10:06:12.436Z,100.00
2022-09-28T10:08:44.625Z,100.00
2022-09-28T10:11:15.005Z,100.00
2022-09-28T10:13:42.819Z,100.00
2022-09-28T10:16:10.312Z,100.00
2022-09-28T10:18:39.871Z,100.00
2022-09-28T10:21:07.330Z,100.00
2022-09-28T10:23:38.665Z,100.00
2022-09-28T10:26:11.355Z,100.00
2022-09-28T10:28:46.273Z,100.00
2022-09-28T10:31:37.307Z,100.00
2022-09-28T10:34:07.883Z,100.00
2022-09-28T10:36:46.981Z,100.00
2022-09-28T10:39:27.367Z,100.00
2022-09-28T10:41:55.174Z,100.00
2022-09-28T10:44:24.089Z,100.00
2022-09-28T10:46:57.698Z,100.00
2022-09-28T10:49:26.945Z,100.00
2022-09-28T10:51:56.312Z,99.79
2022-09-28T10:54:25.517Z,100.00
2022-09-28T10:56:55.098Z,100.00
2022-09-28T10:59:38.084Z,95.63
2022-09-28T11:02:20.130Z,96.75
2022-09-28T11:04:55.017Z,98.44
2022-09-28T11:07:25.199Z,100.00
2022-09-28T11:09:55.369Z,100.00
2022-09-28T11:12:26.118Z,85.49
2022-09-28T11:14:58.947Z,80.30
2022-09-28T11:17:29.412Z,76.30
2022-09-28T11:19:59.958Z,86.30
2022-09-28T11:22:32.270Z,84.81
2022-09-28T11:25:31.252Z,87.02
2022-09-28T11:28:02.072Z,90.46
2022-09-28T11:30:33.797Z,91.78
2022-09-28T11:33:07.952Z,86.19
2022-09-28T11:35:47.056Z,88.06
2022-09-28T11:38:33.959Z,94.65
2022-09-28T11:41:23.464Z,90.94
2022-09-28T11:44:07.548Z,86.31
2022-09-28T11:46:42.782Z,77.72
2022-09-28T11:49:23.783Z,77.91
2022-09-28T11:51:54.745Z,80.69
2022-09-28T11:54:28.896Z,69.62
2022-09-28T11:57:01.068Z,77.36
2022-09-28T11:59:34.839Z,100.00
2022-09-28T12:02:11.718Z,100.00
2022-09-28T12:04:43.520Z,100.00
2022-09-28T12:07:17.892Z,100.00
2022-09-28T12:09:50.481Z,100.00
2022-09-28T12:12:25.210Z,100.00
2022-09-28T12:14:55.172Z,100.00
2022-09-28T12:17:26.962Z,100.00
2022-09-28T12:20:00.248Z,100.00
2022-09-28T12:22:33.818Z,100.00
2022-09-28T12:25:03.927Z,100.00
2022-09-28T12:27:38.849Z,100.00
2022-09-28T12:30:14.708Z,100.00
2022-09-28T12:32:47.708Z,100.00
2022-09-28T12:35:16.975Z,100.00
2022-09-28T12:38:08.682Z,100.00
2022-09-28T12:40:42.201Z,100.00
2022-09-28T12:43:41.981Z,100.00
2022-09-28T12:46:29.094Z,100.00
2022-09-28T12:52:05.928Z,100.00
2022-09-28T12:54:53.176Z,100.00
2022-09-28T12:57:39.080Z,100.00
2022-09-28T13:00:11.125Z,100.00
2022-09-28T13:02:59.708Z,100.00
2022-09-28T13:05:49.459Z,98.86
2022-09-28T13:08:28.078Z,88.78
2022-09-28T13:11:09.617Z,96.32
2022-09-28T13:13:47.112Z,88.41
2022-09-28T13:16:22.895Z,83.72
2022-09-28T13:18:57.977Z,83.39
2022-09-28T13:21:33.297Z,91.92
2022-09-28T13:24:20.943Z,82.79
2022-09-28T13:26:57.625Z,80.54
2022-09-28T13:29:27.046Z,74.60
2022-09-28T13:31:57.667Z,74.91
2022-09-28T13:34:28.046Z,72.31
2022-09-28T13:37:26.445Z,74.56
2022-09-28T13:39:56.367Z,72.80
2022-09-28T13:42:33.319Z,81.05
2022-09-28T13:45:17.555Z,81.76
2022-09-28T13:48:13.955Z,80.60
2022-09-28T13:51:19.631Z,75.45
2022-09-28T13:54:13.817Z,74.67
2022-09-28T13:56:51.667Z,83.44
2022-09-28T13:59:26.933Z,82.08
2022-09-28T14:02:06.926Z,80.38
2022-09-28T14:04:53.746Z,85.64
2022-09-28T14:07:24.599Z,86.20
2022-09-28T14:10:17.111Z,83.08
2022-09-28T14:12:47.740Z,80.71
2022-09-28T14:15:45.908Z,80.76
2022-09-28T14:18:23.703Z,83.46
2022-09-28T14:21:05.348Z,80.02
2022-09-28T14:23:50.554Z,83.95
2022-09-28T14:26:57.844Z,82.98
2022-09-28T14:29:29.164Z,87.85
2022-09-28T14:31:59.784Z,81.86
2022-09-28T14:34:34.266Z,84.28
2022-09-28T14:37:21.956Z,86.83
2022-09-28T14:40:07.841Z,81.37
2022-09-28T14:42:35.320Z,84.89
2022-09-28T14:45:35.781Z,86.29
2022-09-28T14:48:16.435Z,80.68
2022-09-28T14:50:43.890Z,83.45
2022-09-28T14:53:13.433Z,83.40
2022-09-28T14:55:50.109Z,81.21
2022-09-28T14:58:22.529Z,79.37
2022-09-28T15:01:02.055Z,73.84
2022-09-28T15:03:35.093Z,68.59
2022-09-28T15:06:02.726Z,65.81
2022-09-28T15:08:38.379Z,69.54
2022-09-28T15:11:06.950Z,75.19
2022-09-28T15:13:34.462Z,83.01
2022-09-28T15:16:07.200Z,81.10
2022-09-28T15:18:59.576Z,82.17
2022-09-28T15:21:34.481Z,79.70
2022-09-28T15:24:02.171Z,79.16
2022-09-28T15:26:31.686Z,80.97
2022-09-28T15:29:03.091Z,80.74
2022-09-28T15:31:35.735Z,80.49
2022-09-28T15:34:22.007Z,82.79
2022-09-28T15:36:49.897Z,84.06
2022-09-28T15:39:21.950Z,82.16
2022-09-28T15:41:51.589Z,83.75
2022-09-28T15:44:30.031Z,87.64
2022-09-28T15:47:14.671Z,88.10
2022-09-28T15:49:50.615Z,87.57
2022-09-28T15:52:38.236Z,89.60
2022-09-28T15:55:18.575Z,87.07
2022-09-28T15:57:46.149Z,84.38
2022-09-28T16:00:26.416Z,79.61
2022-09-28T16:03:01.996Z,74.21
2022-09-28T16:05:50.365Z,78.70
2022-09-28T16:08:24.492Z,80.65
2022-09-28T16:11:10.815Z,78.79
2022-09-28T16:13:46.629Z,81.77
2022-09-28T16:16:16.481Z,85.75
2022-09-28T16:18:48.999Z,90.39
2022-09-28T16:21:29.920Z,95.37
2022-09-28T16:23:58.081Z,97.75
2022-09-28T16:26:34.156Z,95.92
2022-09-28T16:29:06.796Z,95.88
2022-09-28T16:31:34.671Z,100.00
2022-09-28T16:34:11.833Z,100.00
2022-09-28T16:36:46.230Z,100.00
2022-09-28T16:39:14.186Z,100.00
2022-09-28T16:41:44.665Z,100.00
2022-09-28T16:44:18.682Z,100.00
2022-09-28T16:46:46.777Z,100.00
2022-09-28T16:49:18.663Z,100.00
2022-09-28T16:51:48.635Z,100.00
2022-09-28T16:54:36.904Z,100.00
2022-09-28T16:57:06.231Z,100.00
2022-09-28T16:59:33.867Z,100.00
2022-09-28T17:02:01.452Z,100.00
2022-09-28T17:04:29.703Z,95.02
2022-09-28T17:06:58.741Z,94.12
2022-09-28T17:09:26.166Z,93.05
2022-09-28T17:11:56.936Z,96.90
2022-09-28T17:14:25.212Z,100.00
2022-09-28T17:17:12.661Z,100.00
2022-09-28T17:19:41.367Z,95.53
2022-09-28T17:22:10.722Z,90.44
2022-09-28T17:24:38.415Z,88.63
2022-09-28T17:27:06.867Z,89.30
2022-09-28T17:29:34.379Z,91.10
2022-09-28T17:32:02.083Z,91.26
2022-09-28T17:34:29.542Z,91.94
2022-09-28T17:36:56.996Z,92.20
2022-09-28T17:39:25.935Z,95.00
2022-09-28T17:41:53.438Z,96.45
2022-09-28T17:44:21.224Z,100.00
2022-09-28T17:46:50.985Z,100.00
2022-09-28T17:49:18.629Z,100.00
2022-09-28T17:51:46.129Z,100.00
2022-09-28T17:54:16.637Z,100.00
2022-09-28T17:56:46.064Z,100.00
2022-09-28T17:59:14.967Z,100.00
2022-09-28T18:01:42.887Z,100.00
2022-09-28T18:04:33.190Z,100.00
2022-09-28T18:07:00.992Z,100.00
2022-09-28T18:09:28.528Z,100.00
2022-09-28T18:12:00.771Z,100.00
2022-09-28T18:14:28.371Z,100.00
2022-09-28T18:16:55.874Z,100.00
2022-09-28T18:19:23.420Z,100.00
2022-09-28T18:21:51.120Z,100.00
2022-09-28T18:24:18.960Z,100.00
2022-09-28T18:26:46.477Z,100.00
2022-09-28T18:29:17.500Z,100.00
2022-09-28T18:31:44.983Z,100.00
2022-09-28T18:34:13.524Z,100.00
2022-09-28T18:36:41.069Z,100.00
2022-09-28T18:39:08.565Z,100.00
2022-09-28T18:41:36.180Z,100.00
2022-09-28T18:44:03.697Z,100.00
2022-09-28T18:46:34.593Z,100.00
2022-09-28T18:49:02.103Z,100.00
2022-09-28T18:51:29.967Z,100.00
2022-09-28T18:53:57.609Z,100.00
2022-09-28T18:56:25.531Z,100.00
2022-09-28T18:58:53.172Z,100.00
2022-09-28T19:01:30.825Z,100.00
2022-09-28T19:04:01.358Z,100.00
2022-09-28T19:06:29.714Z,100.00
2022-09-28T19:08:57.678Z,100.00
2022-09-28T19:11:26.267Z,100.00
2022-09-28T19:13:54.569Z,100.00
2022-09-28T19:16:24.294Z,100.00
2022-09-28T19:18:53.412Z,100.00
2022-09-28T19:21:23.661Z,100.00
2022-09-28T19:23:52.000Z,100.00
2022-09-28T19:26:22.362Z,100.00
2022-09-28T19:28:50.662Z,100.00
2022-09-28T19:31:18.953Z,100.00
2022-09-28T19:33:47.091Z,100.00
2022-09-28T19:36:17.674Z,100.00
2022-09-28T19:38:47.023Z,100.00
2022-09-28T19:41:39.487Z,100.00
2022-09-28T19:44:13.367Z,100.00
2022-09-28T19:46:41.562Z,100.00
2022-09-28T19:49:11.247Z,100.00
2022-09-28T19:51:51.487Z,100.00
2022-09-28T19:54:36.205Z,100.00
2022-09-28T19:57:07.327Z,100.00
2022-09-28T19:59:35.525Z,100.00
2022-09-28T20:02:03.148Z,100.00
2022-09-28T20:04:30.951Z,100.00
2022-09-28T20:06:58.431Z,100.00
2022-09-28T20:09:26.047Z,100.00
2022-09-28T20:11:55.272Z,100.00
2022-09-28T20:14:24.586Z,100.00
2022-09-28T20:16:54.148Z,100.00
2022-09-28T20:19:23.146Z,100.00
2022-09-28T20:21:51.079Z,100.00
2022-09-28T20:24:18.756Z,100.00
2022-09-28T20:26:46.657Z,100.00
2022-09-28T20:29:15.502Z,100.00
2022-09-28T20:31:43.142Z,100.00
2022-09-28T20:34:10.858Z,100.00
2022-09-28T20:36:38.810Z,100.00
2022-09-28T20:39:06.335Z,100.00
2022-09-28T20:41:34.654Z,100.00
2022-09-28T20:44:05.604Z,100.00
2022-09-28T20:46:35.239Z,100.00
2022-09-28T20:49:03.348Z,100.00
2022-09-28T20:51:31.048Z,100.00
2022-09-28T20:53:59.754Z,100.00
2022-09-28T20:56:28.590Z,100.00
2022-09-28T20:58:56.905Z,100.00
2022-09-28T21:01:26.356Z,100.00
2022-09-28T21:03:56.831Z,100.00
2022-09-28T21:06:26.358Z,100.00
2022-09-28T21:08:54.126Z,100.00
2022-09-28T21:11:23.406Z,100.00
2022-09-28T21:13:54.742Z,100.00
2022-09-28T21:16:22.386Z,100.00
2022-09-28T21:18:49.949Z,100.00
2022-09-28T21:21:20.633Z,100.00
2022-09-28T21:23:48.876Z,100.00
2022-09-28T21:26:24.620Z,100.00
2022-09-28T21:28:53.826Z,100.00
2022-09-28T21:31:26.217Z,100.00
2022-09-28T21:33:56.235Z,100.00
2022-09-28T21:36:25.749Z,100.00
2022-09-28T21:38:54.140Z,100.00
2022-09-28T21:41:21.722Z,100.00
2022-09-28T21:43:49.294Z,100.00
2022-09-28T21:46:17.964Z,100.00
2022-09-28T21:48:45.643Z,100.00
2022-09-28T21:51:15.358Z,100.00
2022-09-28T21:53:45.021Z,100.00
2022-09-28T21:56:13.668Z,100.00
2022-09-28T21:58:41.531Z,100.00
2022-09-28T22:01:12.991Z,100.00
2022-09-28T22:03:40.629Z,100.00
2022-09-28T22:06:09.055Z,100.00
2022-09-28T22:08:37.614Z,100.00
2022-09-28T22:11:08.647Z,100.00
2022-09-28T22:13:37.721Z,100.00
2022-09-28T22:16:05.361Z,100.00
2022-09-28T22:18:33.955Z,100.00
2022-09-28T22:21:02.869Z,100.00
2022-09-28T22:23:31.173Z,100.00
2022-09-28T22:26:00.348Z,100.00
2022-09-28T22:28:29.886Z,100.00
2022-09-28T22:30:57.956Z,100.00
2022-09-28T22:33:26.755Z,100.00
2022-09-28T22:35:55.210Z,100.00
2022-09-28T22:38:25.019Z,100.00
2022-09-28T22:40:54.485Z,100.00
2022-09-28T22:43:23.293Z,100.00
2022-09-28T22:46:00.909Z,100.00
2022-09-28T22:48:28.487Z,100.00
2022-09-28T22:50:56.105Z,100.00
2022-09-28T22:53:23.863Z,100.00
2022-09-28T22:55:51.408Z,100.00
2022-09-28T22:58:18.989Z,100.00
2022-09-28T23:00:46.550Z,100.00
2022-09-28T23:03:15.714Z,100.00
2022-09-28T23:05:52.036Z,100.00
2022-09-28T23:08:19.588Z,100.00
2022-09-28T23:10:47.175Z,100.00
2022-09-28T23:13:15.148Z,100.00
2022-09-28T23:15:42.943Z,100.00
2022-09-28T23:18:10.888Z,100.00
2022-09-28T23:20:39.839Z,100.00
2022-09-28T23:23:07.362Z,100.00
2022-09-28T23:25:34.908Z,100.00
2022-09-28T23:28:02.618Z,100.00
2022-09-28T23:30:30.428Z,100.00
2022-09-28T23:32:58.058Z,100.00
2022-09-28T23:35:25.636Z,100.00
2022-09-28T23:37:54.521Z,100.00
2022-09-28T23:40:22.067Z,100.00
2022-09-28T23:42:49.643Z,100.00
2022-09-28T23:45:17.342Z,100.00
2022-09-28T23:47:44.866Z,100.00
2022-09-28T23:50:12.371Z,100.00
2022-09-28T23:52:39.882Z,100.00
2022-09-28T23:55:09.437Z,100.00
2022-09-28T23:57:36.938Z,100.00
